Logo AVAMET
Benvolgut visitant, si us plau, ingressa Recuperar contrasenya

Benigembla Ajuntament

Dades diàries. Acumulats / Últims 30 dies disponibles

Data Temperatura (°C) Humitat rel. (%) Pressió rel. (hPa) Vent (km/h) Precipitació
Mínima Mitjana Màxima Amplitud
tèrmica
Mínima Mitjana Màxima Mínima Mitjana Màxima Predom. Mitjana Ràfega
màxima
Total
(mm)
Índex-n
Mínima Mitjana Màxima Mínima Mitjana Màxima n
0 a 1
P0 max
mm 5'
Dades mensuals acumulades fins l'últim dia disponible
10/2019 15,2 15,7 16,0 19,9 24,1 24,9 26,0 10,8 53 84 94 1.012 1.019 1.023   2,8 40,2 2,6
Dades anuals acumulades fins l'últim dia disponible
2019 0,7 13,2 26,5 18,3 10,7 23,7 39,2 38,5 15 63 96 994 1.018 1.036   6,0 99,8 947,2
Últims 30 dies disponibles
14-10-2019 15,8     19,6     24,1 8,3 53 85 94 1.012 1.014 1.018 SW 3,4 40,2 2,6
13-10-2019 15,7     20,2     25,3 9,6 72 85 94 1.016 1.018 1.019 SW 3,2 19,3 0,0
12-10-2019 15,2     19,6     24,1 8,9 74 84 93 1.018 1.019 1.021 SW 2,3 19,3 0,0
11-10-2019 16,0     20,2     26,0 10,0 64 82 94 1.020 1.022 1.023 SW 3,2 25,7 0,0
10-10-2019 15,9     20,1     24,8 8,9 61 83 93 1.020 1.021 1.023 SW 1,9 20,9 0,0
30-09-2019 18,8     20,4     26,2 7,4 46 61 68 1.016 1.017 1.018 SO 7,4 22,5 0,0
29-09-2019 15,7     22,6     30,1 14,4 44 68 89 1.016 1.018 1.020 SW 3,5 20,9 0,0
28-09-2019 16,6     21,8     26,6 10,0 69 79 90 1.018 1.020 1.021 WSW 3,1 19,3 0,0
27-09-2019 17,6     23,3     29,9 12,3 50 69 82 1.016 1.018 1.019 SW 4,2 20,9 0,0
26-09-2019 17,4     22,1     28,1 10,7 59 79 93 1.018 1.019 1.021 SW 3,7 25,7 0,0
25-09-2019 18,8     23,6     27,8 9,0 44 64 93 1.014 1.016 1.018 SW 6,4 32,2 0,0
24-09-2019 16,5     23,7     32,4 15,9 25 57 84 1.014 1.017 1.020 SW 2,4 22,5 0,0
23-09-2019 19,3     22,4     25,9 6,6 44 64 86 1.016 1.019 1.020 SW 5,1 24,1 0,0
22-09-2019 19,6     23,6     28,0 8,4 62 76 88 1.012 1.013 1.016 SW 4,0 22,5 0,0
21-09-2019 20,2     22,5     26,7 6,5 67 86 95 1.012 1.014 1.016 SSW 1,8 17,7 0,0
20-09-2019 18,7     21,4     24,5 5,8 75 87 93 1.016 1.018 1.019 NNE 2,7 22,5 0,0
19-09-2019 17,1     21,6     26,6 9,5 55 75 91 1.016 1.017 1.019 SW 4,3 20,9 0,0
18-09-2019 18,9     23,3     29,1 10,2 47 74 94 1.015 1.015 1.017 SW 3,7 20,9 0,0
17-09-2019 18,4     22,1     26,7 8,3 73 86 94 1.015 1.017 1.019 SW 2,6 19,3 0,0
16-09-2019 20,3     22,6     27,1 6,8 72 90 96 1.018 1.019 1.020 NE 1,9 19,3 1,4
15-09-2019 20,9     22,1     23,4 2,5 86 92 95 1.019 1.020 1.023 E 4,3 33,8 5,2
14-09-2019 18,8     20,6     22,1 3,3 79 87 95 1.021 1.023 1.026 E 4,5 37,0 7,0
13-09-2019 17,4     20,3     23,3 5,9 79 90 95 1.021 1.024 1.026 NE 6,9 78,9 21,0
12-09-2019 17,3     19,9     21,5 4,2 80 90 96 1.020 1.024 1.027 E 14,8 99,8 164,6
11-09-2019 13,9     17,4     20,5 6,6 55 77 95 1.012 1.017 1.023 E 15,4 90,1 71,2
10-09-2019 12,1     21,2     25,4 13,3 36 56 94 1.009 1.011 1.014 NNW 6,6 48,3 17,4
09-09-2019 16,8     23,1     28,1 11,3 43 66 86 1.013 1.016 1.018 NNW 6,6 40,2 0,0
08-09-2019 16,3     20,7     26,4 10,1 57 80 94 1.016 1.018 1.020 NNW 2,7 20,9 0,2
07-09-2019 17,7     20,2     24,8 7,1 68 87 94 1.019 1.020 1.021 NNW 1,8 33,8 6,0
06-09-2019 18,8     21,2     24,9 6,1 70 83 91 1.018 1.019 1.021 NNW 3,1 30,6 0,0
Últims 13 mesos disponibles
09/2019 12,1 18,1 21,1 22,1 20,5 26,6 33,3 21,2 56 77 92 1.011 1.018 1.024 SW 4,7 99,8 308,6
08/2019 17,2 20,2 25,4 25,7 26,0 31,4 38,8 21,6 33 65 83 1.010 1.016 1.020 SE 4,3 46,7 125,0
07/2019 18,3 20,4 26,5 26,5 27,1 32,4 39,2 20,9 34 55 77 1.006 1.014 1.021 NNW 4,8 59,5 3,6
06/2019 10,9 15,9 19,7 22,2 20,3 28,2 37,5 26,6 34 56 79 1.009 1.016 1.022 NW 5,5 51,5 2,2
05/2019 7,8 12,6 20,3 17,9 18,1 23,5 30,8 23,0 47 65 80 1.006 1.016 1.025 NW 5,3 64,4 26,0
04/2019 7,2 10,4 13,9 14,5 13,1 18,9 27,7 20,5 36 68 94 1.000 1.013 1.026 WSW 8,2 85,3 377,0
03/2019 4,5 8,3 15,4 13,5 12,4 18,9 27,1 22,6 30 58 90 1.011 1.023 1.031 WSW 6,4 59,5 90,8
02/2019 2,2 6,1 11,1 11,2 10,9 17,1 23,3 21,1 36 61 82 996 1.026 1.034 WSW 7,2 95,0 0,2
01/2019 0,7 6,0 12,6 10,2 10,7 15,6 20,3 19,6 38 60 82 1.004 1.020 1.032 W 8,3 98,2 5,8
12/2018 4,2 8,2 12,3 12,4 11,2 18,4 24,4 20,2 53 67 91 1.009 1.026 1.032 W 5,3 90,1 37,2
11/2018 5,8 10,3 15,7 13,8 13,2 18,1 23,8 18,0 48 71 93 1.001 1.016 1.024 W 5,1 72,4 189,4
10/2018 7,6 13,5 16,8 17,5 13,8 22,3 28,1 20,5 49 71 86 1.000 1.015 1.026 WNW 5,0 69,2 101,4
09/2018 12,7 18,8 21,5 23,0 22,7 27,8 34,0 21,3 56 75 85 1.013 1.019 1.028 WNW 4,1 43,5 72,2
Tots els anys disponibles
2018 1,3 13,0 24,3 17,6 6,9 22,6 36,4 35,1 42 70 93 1.000 1.019 1.032 WNW 5,8 95,0 795,0
2017 1,2 14,9 25,4 19,9 10,3 25,4 38,9 37,7 WNW 5,4 106,2 226,2
Temperatura (°C)
Humitat relativa (%)
Velocitat del vent i ràfega màxima (km/h)
Direcció del vent (°)
Pressió (hPa)
Precipitació (mm)
Nota sobre les dades: s'avisa a l'usuari de la provisionalitat i no oficialitat d'aquestes dades
Logo AVAMET blanc
Web allotjada a Sollutia
Llicència de Creative CommonsLa web d'AVAMET i els seus continguts estan subjectes a una llicència de
Reconeixement - No Comercial - Compartir igual
Últimes estacions: Villena - Villa Ventín (Soci), Benissa - Convent (Soci), Xàbia Fontanella (Soci), Castielfabib (Soci), Sant Mateu (Soci), Vallada (Soci), Agullent (Soci), - - -